Sentinel — D5FA7 — position and weather

sailwx.info

Track history (hours):
 
Tides and Currents Weather Stations Pressure Air Temp Water Temp Dewpoint Dewpoint Depression Visibility Wind Speed Wind Dir Waves Ship Positions

Sentinel

Last reported at 2018-Oct-12 08:56 UTC. Time now 2018-Nov-14 03:31 UTC.
Position N 24°35' E 119°19'.
Warning: this ship's position is 32 days out of date.

Length 199 m; draft 6.9 m.

Type: Cargo ship. MMSI: 635961385.

Date/timePositionNaut miles runAvg speedWind from/ knotsBaromVisibWave heightAir tempDewpointWater temp
2018-Oct-12 08:56N 24°35' E 119°19'612.9
2018-Oct-12 08:29N 24°40' E 119°23'713.7
2018-Oct-12 08:01N 24°45' E 119°28'016.5
2018-Oct-12 08:00N 24°45' E 119°28'714.0
2018-Oct-12 07:29N 24°50' E 119°34'613.4
2018-Oct-12 07:02N 24°55' E 119°38'214.0
2018-Oct-12 06:55N 24°56' E 119°39'39310.6
2018-Oct-10 17:50N 31°00' E 122°25'513.6
2018-Oct-10 17:30N 31°02' E 122°20'613.8
2018-Oct-10 17:03N 31°02' E 122°13'113.0
2018-Oct-10 17:00N 31°03' E 122°12'611.7
2018-Oct-10 16:30N 31°04' E 122°06'3 7.5
2018-Oct-10 16:03N 31°05' E 122°02'0 8.3
2018-Oct-10 16:00N 31°05' E 122°02'3 6.8
2018-Oct-10 15:31N 31°06' E 121°58'4 9.6
2018-Oct-10 15:03N 31°09' E 121°54'010.0
2018-Oct-10 15:01N 31°09' E 121°53'910.0
2018-Oct-10 14:04N 31°16' E 121°46'111.7
2018-Oct-10 13:59N 31°16' E 121°45'7411.0
2018-Oct-10 07:14N 32°00' E 120°35'211.5
2018-Oct-10 07:03N 32°01' E 120°33'110.6
2018-Oct-10 07:00N 32°01' E 120°32'510.4
2018-Oct-10 06:30N 32°02' E 120°26'2 2.8
2018-Oct-10 05:52N 32°02' E 120°24'1 0.0
2018-Oct-08 10:26N 32°03' E 120°24'0 0.7
2018-Oct-08 10:01N 32°03' E 120°25'0 0.0
2018-Oct-08 10:00N 32°03' E 120°25'0 0.3
2018-Oct-08 09:30N 32°03' E 120°25'0 0.3
2018-Oct-08 09:01N 32°03' E 120°25'0 4.5
2018-Oct-08 09:00N 32°03' E 120°25'0 0.1
2018-Oct-08 08:29N 32°03' E 120°25'0 0.1
2018-Oct-08 08:03N 32°03' E 120°25'0 0.0
2018-Oct-08 08:00N 32°03' E 120°25'0 0.0
2018-Oct-08 07:16N 32°03' E 120°25'0 0.0
2018-Oct-08 07:04N 32°03' E 120°25'0 0.1
2018-Oct-08 07:01N 32°03' E 120°25'  
2018-Oct-03 05:12N 32°02' E 120°24'0 0.0
2018-Oct-03 04:48N 32°02' E 120°24'0 0.0
2018-Oct-02 22:27N 32°02' E 120°24'0 0.0
2018-Oct-02 22:00N 32°02' E 120°24'0 0.0
2018-Oct-02 18:36N 32°02' E 120°24'0 0.0
2018-Oct-02 18:06N 32°02' E 120°24'0 0.0
2018-Oct-02 17:27N 32°02' E 120°24'0 0.0
2018-Oct-02 16:33N 32°02' E 120°24'0 0.0
2018-Oct-02 15:45N 32°02' E 120°24'  
Track history (hours):
 
Tides and Currents Weather Stations Pressure Air Temp Water Temp Dewpoint Dewpoint Depression Visibility Wind Speed Wind Dir Waves Ship Positions

Sentinel

Last reported at 2018-Oct-12 08:56 UTC. Time now 2018-Nov-14 03:31 UTC.
Position N 24°35' E 119°19'.
Warning: this ship's position is 32 days out of date.

Length 199 m; draft 6.9 m.

Type: Cargo ship. MMSI: 635961385.

Date/timePositionNaut miles runAvg speedWind from/ knotsBaromVisibWave heightAir tempDewpointWater temp
2018-Oct-12 08:56N 24°35' E 119°19'612.9
2018-Oct-12 08:29N 24°40' E 119°23'713.7
2018-Oct-12 08:01N 24°45' E 119°28'016.5
2018-Oct-12 08:00N 24°45' E 119°28'714.0
2018-Oct-12 07:29N 24°50' E 119°34'613.4
2018-Oct-12 07:02N 24°55' E 119°38'214.0
2018-Oct-12 06:55N 24°56' E 119°39'39310.6
2018-Oct-10 17:50N 31°00' E 122°25'513.6
2018-Oct-10 17:30N 31°02' E 122°20'613.8
2018-Oct-10 17:03N 31°02' E 122°13'113.0
2018-Oct-10 17:00N 31°03' E 122°12'611.7
2018-Oct-10 16:30N 31°04' E 122°06'3 7.5
2018-Oct-10 16:03N 31°05' E 122°02'0 8.3
2018-Oct-10 16:00N 31°05' E 122°02'3 6.8
2018-Oct-10 15:31N 31°06' E 121°58'4 9.6
2018-Oct-10 15:03N 31°09' E 121°54'010.0
2018-Oct-10 15:01N 31°09' E 121°53'910.0
2018-Oct-10 14:04N 31°16' E 121°46'111.7
2018-Oct-10 13:59N 31°16' E 121°45'7411.0
2018-Oct-10 07:14N 32°00' E 120°35'211.5
2018-Oct-10 07:03N 32°01' E 120°33'110.6
2018-Oct-10 07:00N 32°01' E 120°32'510.4
2018-Oct-10 06:30N 32°02' E 120°26'2 2.8
2018-Oct-10 05:52N 32°02' E 120°24'1 0.0
2018-Oct-08 10:26N 32°03' E 120°24'0 0.7
2018-Oct-08 10:01N 32°03' E 120°25'0 0.0
2018-Oct-08 10:00N 32°03' E 120°25'0 0.3
2018-Oct-08 09:30N 32°03' E 120°25'0 0.3
2018-Oct-08 09:01N 32°03' E 120°25'0 4.5
2018-Oct-08 09:00N 32°03' E 120°25'0 0.1
2018-Oct-08 08:29N 32°03' E 120°25'0 0.1
2018-Oct-08 08:03N 32°03' E 120°25'0 0.0
2018-Oct-08 08:00N 32°03' E 120°25'0 0.0
2018-Oct-08 07:16N 32°03' E 120°25'0 0.0
2018-Oct-08 07:04N 32°03' E 120°25'0 0.1
2018-Oct-08 07:01N 32°03' E 120°25'  
2018-Oct-03 05:12N 32°02' E 120°24'0 0.0
2018-Oct-03 04:48N 32°02' E 120°24'0 0.0
2018-Oct-02 22:27N 32°02' E 120°24'0 0.0
2018-Oct-02 22:00N 32°02' E 120°24'0 0.0
2018-Oct-02 18:36N 32°02' E 120°24'0 0.0
2018-Oct-02 18:06N 32°02' E 120°24'0 0.0
2018-Oct-02 17:27N 32°02' E 120°24'0 0.0
2018-Oct-02 16:33N 32°02' E 120°24'0 0.0
2018-Oct-02 15:45N 32°02' E 120°24'  

Dump ship's entire track history